METAR Data
IDs: Format: Raw Decoded Include TAF

Data at: 1504 UTC 18 Aug 2019

PAQH 181456Z AUTO 35010KT 10SM CLR 07/07 A3030 RMK AO2 SLP260 T00720067 58012
PAQH 181356Z AUTO 36012KT 10SM CLR 08/07 A3031 RMK AO2 SLP264 T00780072
PAQH 181256Z AUTO 36008KT 10SM CLR 08/07 A3033 RMK AO2 SLP270 T00830072
PAQH 181156Z AUTO 36006KT 10SM CLR 09/08 A3033 RMK AO2 SLP272 T00890078 10150 20089 56009
PAQH 181056Z AUTO 01011KT 10SM CLR 10/09 A3034 RMK AO2 SLP274 T01000089
PAQH 180956Z AUTO 34010KT 10SM CLR 11/09 A3035 RMK AO2 SLP277 T01060089
PAQH 180856Z AUTO 35008KT 10SM CLR 12/09 A3036 RMK AO2 SLP281 T01170094 401830117 58005
PAQH 180756Z AUTO 35010KT 10SM CLR 12/09 A3037 RMK AO2 SLP284 T01220094
PAQH 180656Z AUTO 34010KT 10SM CLR 13/09 A3037 RMK AO2 SLP283 T01330094
PAQH 180556Z AUTO 35013KT 10SM CLR 15/10 A3038 RMK AO2 SLP285 T01500100 10183 20150 56005
PAQH 180456Z AUTO 35017KT 10SM CLR 17/10 A3038 RMK AO2 SLP286 T01670100
PAQH 180356Z AUTO 36020G26KT 10SM CLR 17/09 A3038 RMK AO2 PK WND 35026/0351 SLP289 T01720094
PAQH 180256Z AUTO 36017KT 10SM CLR 18/09 A3039 RMK AO2 PK WND 35026/0243 SLP291 T01830089 56011
PAQH 180156Z AUTO 35019G25KT 9SM CLR 18/09 A3039 RMK AO2 SLP293 T01830089
PAQH 180056Z AUTO 35014G23KT 10SM CLR 18/09 A3041 RMK AO2 SLP299 T01830089
PAQH 172356Z AUTO 34018G23KT 10SM CLR 18/10 A3042 RMK AO2 SLP302 T01830100 10183 20133 58013
PAQH 172256Z AUTO 34016G21KT 10SM CLR 17/09 A3044 RMK AO2 SLP308 T01720094
PAQH 172156Z AUTO 34017G21KT 10SM CLR 17/10 A3045 RMK AO2 SLP313 T01720100
PAQH 172056Z AUTO 34016KT 10SM CLR 16/10 A3046 RMK AO2 SLP315 T01610100 58005
PAQH 171956Z AUTO 34011KT 10SM CLR 16/11 A3047 RMK AO2 SLP316 T01560111
PAQH 171856Z AUTO 35012KT 10SM FEW023 15/11 A3047 RMK AO2 SLP319 T01500111
PAQH 171852Z AUTO 34011KT 10SM SCT023 15/12 A3047 RMK AO2
PAQH 171823Z AUTO 34010KT 10SM FEW003 SCT007 OVC023 14/13 A3047 RMK AO2
PAQH 171805Z AUTO 35012KT 3SM BR OVC005 13/13 A3048 RMK AO2 CIG 003V009
PAQH 171756Z AUTO 35011KT 2 1/2SM BR OVC005 13/13 A3048 RMK AO2 VIS 1 1/2V5 SLP321 T01330128 10144 20133 53002
PAQH 171730Z AUTO 33010KT 10SM OVC005 14/13 A3048 RMK AO2
PAQH 171656Z AUTO 34011KT 10SM OVC003 14/13 A3047 RMK AO2 SLP319 T01390133
PAQH 171653Z AUTO 33010KT 10SM BKN003 OVC008 14/13 A3047 RMK AO2
PAQH 171608Z AUTO 33006KT 8SM OVC005 14/13 A3047 RMK AO2 CIG 003V011
PAQH 171556Z AUTO 34007KT 3SM BR OVC003 14/13 A3047 RMK AO2 SLP318 T01390133
PAQH 171456Z AUTO 31007KT 3SM BR OVC003 14/13 A3047 RMK AO2 SLP318 T01390133 58004
PAQH 171416Z AUTO 32007KT 6SM BR OVC003 14/13 A3047 RMK AO2
PAQH 171356Z AUTO 31007KT 6SM BR OVC005 14/13 A3048 RMK AO2 SLP320 T01390133
PAQH 171328Z AUTO 31008KT 10SM OVC005 14/13 A3048 RMK AO2
PAQH 171256Z AUTO 31006KT 10SM OVC003 14/13 A3048 RMK AO2 SLP322 T01390133
PAQH 171223Z AUTO 32007KT 8SM BKN003 OVC008 14/13 A3048 RMK AO2
PAQH 171211Z AUTO 31009KT 10SM OVC006 14/13 A3048 RMK AO2 CIG 003V007
PAQH 171156Z AUTO 31008KT 10SM OVC004 14/14 A3048 RMK AO2 RAE13 CIG 003V008 SLP322 P0000 60000 T01390139 10150 20139 56003
PAQH 171056Z AUTO 30005KT 3SM -RA BR OVC004 14/14 A3048 RMK AO2 RAB48 SLP322 P0000 T01440144
PAQH 170956Z AUTO 29006KT 6SM BR OVC004 15/14 A3049 RMK AO2 RAB04E32 CIG 002V006 SLP325 P0000 T01500144
PAQH 170918Z AUTO 29005KT 2 1/2SM -RA BR OVC004 15/14 A3049 RMK AO2 RAB04 P0000
PAQH 170908Z AUTO 29005KT 1 1/2SM -RA BR OVC004 14/14 A3049 RMK AO2 RAB04 CIG 002V008 P0000
PAQH 170856Z AUTO 30005KT 2 1/2SM BR OVC004 14/14 A3049 RMK AO2 RAB38E55 CIG 002V006 SLP325 P0000 60000 T01440144 401670089 56001
PAQH 170827Z AUTO 00000KT 1 3/4SM BR BKN004 OVC009 14/14 A3049 RMK AO2
PAQH 170825Z AUTO 00000KT 2SM BR SCT004 OVC009 14/14 A3049 RMK AO2
PAQH 170814Z AUTO 30003KT 3SM BR FEW004 BKN009 OVC018 14/14 A3049 RMK AO2 CIG 007V010
PAQH 170756Z AUTO 29004KT 10SM BKN012 OVC018 14/14 A3049 RMK AO2 SLP325 T01440139
PAQH 170641Z AUTO 25004KT 5SM BR SCT007 OVC014 14/14 A3050 RMK AO2
PAQH 170632Z AUTO 25005KT 6SM BR FEW005 SCT009 OVC016 14/14 A3050 RMK AO2
PAQH 170556Z AUTO 25006KT 7SM OVC005 14/14 A3050 RMK AO2 CIG 003V009 SLP327 T01440139 10167 20144 56009
PAQH 170536Z AUTO 25005KT 3SM BR BKN005 OVC008 14/14 A3050 RMK AO2
PAQH 170523Z AUTO 25007KT 2 1/2SM BR OVC005 14/14 A3050 RMK AO2 CIG 003V009
PAQH 170456Z AUTO 25009KT 4SM BR OVC009 14/13 A3051 RMK AO2 CIG 005V010 SLP331 T01440133
PAQH 170447Z AUTO 26008KT 5SM BR BKN009 OVC016 14/13 A3051 RMK AO2 CIG 006V010
PAQH 170440Z AUTO 25008KT 6SM BR BKN011 OVC018 14/13 A3051 RMK AO2 CIG 007V013
PAQH 170356Z AUTO 24010KT 10SM FEW012 OVC021 15/13 A3052 RMK AO2 SLP334 T01500128
PAQH 170308Z AUTO 24010KT 10SM SCT014 OVC030 16/13 A3052 RMK AO2